Terminal Aerodrome Forecast
Issued by NWS

Home | Current Version | Previous Version | Text Only | Print | Product List | Glossary On
Versions: 1 2 3 4 5 6 7 8 9 10 11 12 13 14 15 16 17 18 19 20
000
FTUS43 KAPX 061127
TAFMBL
TAF
KMBL 061127Z 0612/0712 09003KT P6SM SKC
     FM061500 22013G22KT P6SM SCT022
     FM061800 21014G26KT P6SM SCT020 BKN100
     FM062200 21015G28KT P6SM OVC016
     FM070100 21013G25KT 6SM -SN OVC014
      AMD LTD TO CLD VIS AND WIND=

USA.gov is the U.S. government's official web portal to all federal, state and local government web resources and services.